Time;durP1;ratioP1;P1;durP2;ratioP2;P2;SDS_P1;SDS_P2;PMS_P1;PMS_P2;Temp;Humidity;BMP_temperature;BMP_pressure;BME280_temperature;BME280_humidity;BME280_pressure;Samples;Min_cycle;Max_cycle;Signal;HPM_P1;HPM_P2
2024/04/12 00:01:01;;;;;;;3.92;2.38;;;5.80;99.90;;;;;;2237332;26;20365;-71
2024/04/12 00:02:02;;;;;;;3.45;1.95;;;5.80;99.70;;;;;;2236041;26;20275;-71
2024/04/12 00:03:04;;;;;;;3.57;2.27;;;5.70;99.50;;;;;;2236698;26;20297;-71
2024/04/12 00:04:08;;;;;;;2.33;1.88;;;5.80;99.40;;;;;;2235624;26;20316;-71
2024/04/12 00:05:08;;;;;;;2.75;1.92;;;5.80;99.10;;;;;;2236156;26;20237;-71
2024/04/12 00:06:17;;;;;;;4.13;1.93;;;5.70;99.00;;;;;;2234187;26;20245;-70
2024/04/12 00:07:18;;;;;;;3.10;1.67;;;5.70;98.90;;;;;;2224596;26;20246;-71
2024/04/12 00:08:19;;;;;;;4.93;2.30;;;5.60;98.80;;;;;;2232628;26;21005;-71
2024/04/12 00:09:22;;;;;;;4.07;2.05;;;5.60;99.60;;;;;;2221115;26;20343;-71
2024/04/12 00:10:23;;;;;;;3.95;2.05;;;5.50;99.00;;;;;;2221059;26;20269;-71
2024/04/12 00:11:24;;;;;;;4.35;2.30;;;5.50;99.10;;;;;;2224010;26;20313;-71
2024/04/12 00:12:26;;;;;;;3.20;1.93;;;5.50;99.30;;;;;;2232275;26;20316;-69
2024/04/12 00:13:31;;;;;;;4.45;2.30;;;5.50;99.40;;;;;;2236500;26;20398;-71
2024/04/12 00:14:32;;;;;;;6.13;2.22;;;5.50;99.20;;;;;;2220945;26;20686;-71
2024/04/12 00:15:34;;;;;;;4.05;2.08;;;5.60;99.20;;;;;;2207269;26;20263;-70
2024/04/12 00:16:38;;;;;;;3.58;2.15;;;5.60;99.20;;;;;;2196488;26;20271;-71
2024/04/12 00:17:38;;;;;;;5.55;2.50;;;5.60;99.10;;;;;;2230149;26;20265;-71
2024/04/12 00:18:39;;;;;;;3.57;2.10;;;5.60;99.10;;;;;;2242867;26;20712;-69
2024/04/12 00:19:40;;;;;;;4.53;2.30;;;5.50;99.20;;;;;;2229030;26;20269;-71
2024/04/12 00:20:41;;;;;;;2.80;1.83;;;5.50;99.20;;;;;;2249864;26;20407;-71
2024/04/12 00:21:46;;;;;;;4.30;2.08;;;5.50;99.20;;;;;;2247778;26;20306;-71
2024/04/12 00:22:48;;;;;;;4.57;2.20;;;5.50;99.20;;;;;;2233328;26;20312;-71
2024/04/12 00:23:53;;;;;;;4.15;2.03;;;5.50;99.40;;;;;;2232008;26;20312;-71
2024/04/12 00:24:54;;;;;;;5.03;2.00;;;5.50;99.20;;;;;;2231960;26;20355;-71
2024/04/12 00:26:00;;;;;;;5.03;2.13;;;5.40;99.00;;;;;;2237509;26;20662;-70
2024/04/12 00:27:01;;;;;;;6.07;1.90;;;5.40;98.90;;;;;;2237309;26;20245;-71
2024/04/12 00:28:05;;;;;;;2.85;1.88;;;5.30;99.10;;;;;;2238202;26;20266;-70
2024/04/12 00:29:08;;;;;;;3.95;1.90;;;5.30;99.10;;;;;;2230575;26;20298;-70
2024/04/12 00:30:09;;;;;;;3.20;1.63;;;5.30;99.10;;;;;;2233861;26;20608;-71
2024/04/12 00:31:13;;;;;;;5.03;2.42;;;5.20;99.10;;;;;;2248153;26;20255;-70
2024/04/12 00:32:16;;;;;;;6.00;2.05;;;5.30;99.40;;;;;;2239984;26;20769;-69
2024/04/12 00:33:19;;;;;;;5.55;2.40;;;5.30;99.40;;;;;;2238782;26;20237;-71
2024/04/12 00:34:26;;;;;;;4.53;1.80;;;5.30;99.40;;;;;;2243042;26;20740;-70
2024/04/12 00:35:34;;;;;;;4.63;2.13;;;5.20;99.30;;;;;;2245936;26;20597;-71
2024/04/12 00:36:35;;;;;;;5.35;2.20;;;5.20;99.40;;;;;;2241269;26;20272;-71
2024/04/12 00:37:36;;;;;;;3.47;2.13;;;5.20;99.50;;;;;;2244850;26;20353;-70
2024/04/12 00:38:43;;;;;;;4.63;2.33;;;5.20;99.60;;;;;;2252552;26;20275;-71
2024/04/12 00:39:48;;;;;;;2.03;1.70;;;5.20;99.70;;;;;;2244994;26;20306;-71
2024/04/12 00:40:52;;;;;;;2.42;1.80;;;5.20;99.40;;;;;;2229890;26;20325;-71
2024/04/12 00:41:53;;;;;;;2.75;2.00;;;5.20;99.30;;;;;;2224853;26;20404;-71
2024/04/12 00:42:57;;;;;;;2.30;1.73;;;5.20;99.30;;;;;;2237457;26;20336;-71
2024/04/12 00:44:03;;;;;;;3.00;2.20;;;5.20;99.10;;;;;;2233698;26;20272;-70
2024/04/12 00:45:11;;;;;;;2.85;1.60;;;5.10;99.20;;;;;;2229289;26;20246;-69
2024/04/12 00:46:24;;;;;;;2.38;1.77;;;5.30;99.30;;;;;;2232061;26;20702;-71
2024/04/12 00:47:27;;;;;;;3.60;2.58;;;5.30;99.40;;;;;;2237958;26;20265;-71
2024/04/12 00:48:28;;;;;;;4.65;2.28;;;5.20;99.30;;;;;;2232013;26;20279;-71
2024/04/12 00:49:30;;;;;;;4.72;2.28;;;5.20;99.60;;;;;;2238236;26;20380;-71
2024/04/12 00:50:31;;;;;;;3.92;2.20;;;5.20;99.70;;;;;;2236146;26;20286;-71
2024/04/12 00:51:33;;;;;;;4.83;2.30;;;5.10;99.50;;;;;;2222232;26;20262;-70
2024/04/12 00:52:37;;;;;;;6.25;2.35;;;5.20;99.50;;;;;;2245205;26;20266;-70
2024/04/12 00:53:38;;;;;;;5.13;2.15;;;5.20;99.60;;;;;;2244321;26;20656;-71
2024/04/12 00:54:42;;;;;;;5.00;2.20;;;5.20;99.70;;;;;;2245042;26;20373;-71
2024/04/12 00:55:47;;;;;;;5.95;2.22;;;5.20;99.80;;;;;;2244712;26;20323;-71
2024/04/12 00:56:48;;;;;;;3.28;2.13;;;5.10;99.70;;;;;;2244278;26;20264;-71
2024/04/12 00:57:48;;;;;;;5.53;2.20;;;5.20;99.80;;;;;;2244996;26;20656;-70
2024/04/12 00:58:49;;;;;;;3.00;2.10;;;5.20;99.70;;;;;;2243935;26;20748;-71
2024/04/12 00:59:51;;;;;;;6.30;2.20;;;5.30;99.60;;;;;;2244052;26;20269;-71
2024/04/12 01:00:52;;;;;;;4.13;2.45;;;5.20;99.40;;;;;;2235111;26;20614;-70
2024/04/12 01:01:55;;;;;;;3.53;2.20;;;5.20;99.40;;;;;;2243567;26;20326;-71
2024/04/12 01:02:58;;;;;;;3.63;2.50;;;5.30;99.40;;;;;;2229257;26;20274;-71
2024/04/12 01:04:00;;;;;;;6.95;2.67;;;5.20;99.20;;;;;;2237286;26;20272;-71
2024/04/12 01:05:00;;;;;;;7.32;2.50;;;5.30;99.60;;;;;;2263151;26;20373;-70
2024/04/12 01:06:05;;;;;;;4.80;2.40;;;5.20;99.70;;;;;;2241821;26;20344;-71
2024/04/12 01:07:06;;;;;;;4.45;2.33;;;5.20;99.90;;;;;;2231259;26;20363;-70
2024/04/12 01:08:07;;;;;;;4.85;2.00;;;5.20;99.90;;;;;;2235471;26;20628;-71
2024/04/12 01:09:11;;;;;;;3.50;2.20;;;5.10;99.90;;;;;;2235566;26;20236;-70
2024/04/12 01:10:12;;;;;;;4.18;2.38;;;5.20;99.90;;;;;;2232971;26;20275;-71
2024/04/12 01:11:13;;;;;;;3.10;2.30;;;5.30;99.90;;;;;;2221991;26;20586;-71
2024/04/12 01:12:17;;;;;;;5.72;2.47;;;5.20;99.90;;;;;;2235675;26;20237;-71
2024/04/12 01:13:17;;;;;;;3.28;2.25;;;5.10;99.90;;;;;;2236206;26;20240;-70
2024/04/12 01:14:18;;;;;;;4.73;2.10;;;5.10;99.90;;;;;;2234851;26;20282;-70
2024/04/12 01:15:19;;;;;;;5.77;2.97;;;5.20;99.90;;;;;;2218038;26;20256;-71
2024/04/12 01:16:23;;;;;;;3.10;2.10;;;5.30;99.90;;;;;;2222011;26;20234;-71
2024/04/12 01:17:24;;;;;;;6.22;2.40;;;5.30;99.90;;;;;;2221857;26;20336;-71
2024/04/12 01:18:25;;;;;;;5.23;2.40;;;5.30;99.40;;;;;;2235832;26;20333;-71
2024/04/12 01:19:27;;;;;;;2.90;1.95;;;5.40;99.20;;;;;;2254672;26;20313;-70
2024/04/12 01:20:27;;;;;;;3.80;2.40;;;5.40;99.00;;;;;;2264890;26;20367;-71
2024/04/12 01:21:29;;;;;;;3.50;2.00;;;5.40;98.70;;;;;;2246689;26;20279;-69
2024/04/12 01:22:30;;;;;;;3.35;2.25;;;5.30;98.60;;;;;;2228246;26;20328;-70
2024/04/12 01:23:33;;;;;;;2.75;1.90;;;5.30;98.60;;;;;;2229027;26;20679;-71
2024/04/12 01:24:39;;;;;;;5.40;2.75;;;5.30;98.50;;;;;;2259420;26;20275;-71
2024/04/12 01:25:39;;;;;;;5.18;1.60;;;5.20;98.40;;;;;;2234773;26;20700;-71
2024/04/12 01:26:40;;;;;;;3.43;2.07;;;5.20;98.80;;;;;;2254746;26;20270;-71
2024/04/12 01:27:41;;;;;;;3.47;1.83;;;5.20;98.20;;;;;;2234034;26;20764;-71
2024/04/12 01:28:42;;;;;;;3.63;2.00;;;5.20;98.20;;;;;;2220886;26;20265;-70
2024/04/12 01:29:45;;;;;;;2.72;1.63;;;5.20;98.20;;;;;;2227382;26;20306;-71
2024/04/12 01:30:46;;;;;;;1.73;1.60;;;5.10;98.30;;;;;;2242296;26;20265;-71
2024/04/12 01:31:53;;;;;;;3.78;1.67;;;4.90;98.40;;;;;;2243235;26;20680;-71
2024/04/12 01:32:54;;;;;;;5.90;2.70;;;5.00;99.20;;;;;;2231332;26;20269;-71
2024/04/12 01:33:54;;;;;;;3.77;1.93;;;5.00;98.70;;;;;;2243035;26;20265;-68
2024/04/12 01:34:55;;;;;;;2.83;1.80;;;5.00;99.00;;;;;;2245487;26;20264;-70
2024/04/12 01:36:01;;;;;;;6.33;2.20;;;4.90;99.20;;;;;;2234019;26;20638;-70
2024/04/12 01:37:04;;;;;;;3.40;2.05;;;4.90;99.40;;;;;;2221265;26;20900;-70
2024/04/12 01:38:17;;;;;;;2.70;2.20;;;4.90;99.60;;;;;;2220065;26;20288;-70
2024/04/12 01:39:18;;;;;;;3.55;1.95;;;4.90;99.70;;;;;;2252550;26;20645;-70
2024/04/12 01:40:22;;;;;;;2.47;2.10;;;4.90;99.50;;;;;;2266124;26;20234;-70
2024/04/12 01:41:32;;;;;;;4.13;2.40;;;5.00;99.70;;;;;;2249947;26;20267;-70
2024/04/12 01:42:37;;;;;;;3.45;2.20;;;4.90;99.50;;;;;;2233448;26;20801;-70
2024/04/12 01:43:38;;;;;;;3.67;2.00;;;5.00;99.40;;;;;;2223591;26;20277;-71
2024/04/12 01:45:12;;;;;;;3.35;2.20;;;5.00;99.30;;;;;;2222028;26;20754;-70
2024/04/12 01:46:00;;;;;;;3.65;1.88;;;5.00;99.30;;;;;;2236732;26;20268;-71
2024/04/12 01:47:03;;;;;;;3.83;1.90;;;5.00;99.20;;;;;;2240478;26;20790;-70
2024/04/12 01:48:04;;;;;;;3.53;2.85;;;5.00;99.30;;;;;;2234734;26;20256;-69
2024/04/12 01:49:10;;;;;;;2.65;2.20;;;4.90;99.20;;;;;;2234820;26;20271;-70
2024/04/12 01:50:12;;;;;;;4.35;2.50;;;4.90;99.50;;;;;;2235196;26;20984;-71
2024/04/12 01:51:13;;;;;;;5.35;2.58;;;4.90;99.30;;;;;;2243214;26;20235;-70
2024/04/12 01:52:25;;;;;;;2.43;1.90;;;4.90;99.30;;;;;;2235605;26;20693;-71
2024/04/12 01:53:27;;;;;;;5.63;2.70;;;4.90;99.70;;;;;;2238127;26;20556;-71
2024/04/12 01:54:32;;;;;;;5.47;2.47;;;4.90;99.90;;;;;;2250620;26;20743;-70
2024/04/12 01:55:33;;;;;;;4.38;2.58;;;4.90;99.90;;;;;;2249916;26;20264;-70
2024/04/12 01:56:34;;;;;;;6.40;2.53;;;4.90;99.90;;;;;;2250382;26;20319;-70
2024/04/12 01:57:41;;;;;;;6.03;2.67;;;4.90;99.90;;;;;;2251777;26;20264;-71
2024/04/12 01:58:42;;;;;;;5.28;2.15;;;4.90;99.90;;;;;;2235452;26;20308;-70
2024/04/12 01:59:43;;;;;;;3.47;2.10;;;4.90;99.80;;;;;;2222599;26;20273;-70
2024/04/12 02:00:44;;;;;;;3.97;2.00;;;4.90;99.60;;;;;;2246305;26;20744;-71
2024/04/12 02:01:46;;;;;;;6.25;2.50;;;5.00;99.50;;;;;;2234179;26;20261;-70
2024/04/12 02:02:58;;;;;;;3.53;2.28;;;5.00;99.40;;;;;;2229361;26;20280;-71
2024/04/12 02:04:02;;;;;;;2.45;1.83;;;5.00;99.80;;;;;;2250371;26;20358;-70
2024/04/12 02:05:03;;;;;;;6.45;2.40;;;4.90;99.20;;;;;;2243254;26;20247;-71
2024/04/12 02:06:05;;;;;;;4.85;2.38;;;5.00;99.30;;;;;;2250576;26;20247;-71
2024/04/12 02:07:11;;;;;;;3.70;2.10;;;5.00;99.30;;;;;;2235014;26;20321;-70
2024/04/12 02:08:16;;;;;;;2.60;2.08;;;5.00;99.30;;;;;;2238530;26;20237;-71
2024/04/12 02:09:19;;;;;;;3.70;2.22;;;4.90;99.30;;;;;;2236526;26;20278;-70
2024/04/12 02:10:22;;;;;;;4.13;2.80;;;4.80;99.50;;;;;;2248923;26;20232;-71
2024/04/12 02:11:23;;;;;;;4.15;2.47;;;4.80;99.70;;;;;;2250501;26;20266;-71
2024/04/12 02:12:26;;;;;;;4.20;2.40;;;4.80;99.90;;;;;;2250535;26;20319;-71
2024/04/12 02:13:35;;;;;;;3.67;2.65;;;4.80;99.90;;;;;;2249159;26;20352;-70
2024/04/12 02:14:38;;;;;;;5.13;2.55;;;4.80;99.90;;;;;;2237341;26;20268;-71
2024/04/12 02:15:40;;;;;;;5.20;2.88;;;4.90;99.90;;;;;;2250251;26;20315;-70
2024/04/12 02:16:41;;;;;;;5.15;2.70;;;4.70;99.90;;;;;;2249818;26;20356;-71
2024/04/12 02:17:42;;;;;;;4.30;2.45;;;4.80;99.90;;;;;;2249551;26;20278;-71
2024/04/12 02:18:44;;;;;;;4.70;2.43;;;4.80;99.90;;;;;;2250074;26;20272;-70
2024/04/12 02:19:46;;;;;;;5.38;2.30;;;4.90;99.90;;;;;;2251326;26;20252;-71
2024/04/12 02:20:49;;;;;;;3.72;2.03;;;4.90;99.90;;;;;;2250539;26;20306;-70
2024/04/12 02:21:50;;;;;;;3.15;2.05;;;4.90;99.90;;;;;;2229024;26;20280;-71
2024/04/12 02:22:51;;;;;;;4.30;2.28;;;5.00;99.80;;;;;;2220282;26;21167;-70
2024/04/12 02:23:52;;;;;;;3.63;1.93;;;4.90;99.60;;;;;;2220699;26;20277;-71
2024/04/12 02:24:53;;;;;;;2.85;2.20;;;4.90;99.50;;;;;;2236108;26;20310;-70
2024/04/12 02:25:58;;;;;;;3.10;2.20;;;4.90;99.70;;;;;;2231594;26;20295;-71
2024/04/12 02:26:58;;;;;;;4.60;2.70;;;4.90;99.60;;;;;;2232982;26;20269;-71
2024/04/12 02:28:00;;;;;;;3.77;2.50;;;4.90;99.60;;;;;;2231318;26;20804;-71
2024/04/12 02:29:04;;;;;;;3.67;2.38;;;4.90;99.50;;;;;;2229588;26;20269;-69
2024/04/12 02:30:06;;;;;;;5.30;2.47;;;4.90;99.40;;;;;;2233953;26;20302;-71
2024/04/12 02:31:10;;;;;;;3.00;2.20;;;4.90;99.20;;;;;;2235932;26;20241;-71
2024/04/12 02:32:10;;;;;;;5.60;2.60;;;4.90;99.30;;;;;;2235430;26;20241;-71
2024/04/12 02:33:16;;;;;;;4.83;2.67;;;4.90;99.20;;;;;;2235467;26;20278;-71
2024/04/12 02:34:17;;;;;;;3.67;2.40;;;4.90;99.30;;;;;;2221999;26;20242;-71
2024/04/12 02:35:21;;;;;;;4.63;2.17;;;4.90;99.50;;;;;;2220225;26;20238;-70
2024/04/12 02:36:22;;;;;;;4.07;2.67;;;4.80;99.00;;;;;;2221420;26;20317;-71
2024/04/12 02:37:23;;;;;;;5.70;1.93;;;4.80;98.90;;;;;;2224256;26;20264;-71
2024/04/12 02:38:23;;;;;;;4.13;2.00;;;4.80;98.90;;;;;;2235005;26;20269;-71
2024/04/12 02:39:27;;;;;;;5.93;2.30;;;4.70;98.90;;;;;;2235263;26;20265;-70
2024/04/12 02:40:29;;;;;;;5.93;2.45;;;4.80;99.10;;;;;;2248038;26;20268;-71
2024/04/12 02:41:37;;;;;;;5.25;2.17;;;4.70;99.20;;;;;;2235693;26;20329;-70
2024/04/12 02:42:38;;;;;;;4.00;2.35;;;4.70;99.20;;;;;;2231529;26;20381;-71
2024/04/12 02:43:41;;;;;;;4.53;1.88;;;4.70;99.20;;;;;;2250063;26;20628;-71
2024/04/12 02:44:42;;;;;;;1.85;1.65;;;4.60;99.20;;;;;;2250983;26;20275;-70
2024/04/12 02:46:01;;;;;;;2.33;2.00;;;4.50;99.20;;;;;;2234694;26;21033;-71
2024/04/12 02:47:04;;;;;;;4.15;2.03;;;4.60;99.40;;;;;;2231865;26;20696;-70
2024/04/12 02:48:10;;;;;;;3.33;2.00;;;4.60;99.30;;;;;;2235205;26;20310;-71
2024/04/12 02:49:12;;;;;;;4.15;1.90;;;4.60;99.30;;;;;;2237085;26;20243;-71
2024/04/12 02:50:15;;;;;;;3.97;1.98;;;4.60;99.20;;;;;;2236549;26;20236;-71
2024/04/12 02:51:22;;;;;;;4.18;2.53;;;4.60;99.20;;;;;;2236367;26;20236;-71
2024/04/12 02:52:23;;;;;;;3.85;2.20;;;4.70;99.20;;;;;;2235950;26;20324;-71
2024/04/12 02:53:26;;;;;;;5.78;2.58;;;4.60;99.20;;;;;;2237216;26;20778;-70
2024/04/12 02:54:27;;;;;;;4.35;2.55;;;4.50;99.20;;;;;;2236834;26;20267;-71
2024/04/12 02:55:30;;;;;;;3.88;2.28;;;4.60;99.50;;;;;;2234735;26;20668;-70
2024/04/12 02:56:33;;;;;;;5.43;2.20;;;4.50;99.90;;;;;;2236499;26;20284;-70
2024/04/12 02:57:34;;;;;;;4.25;2.72;;;4.50;99.50;;;;;;2247766;26;20268;-70
2024/04/12 02:58:46;;;;;;;4.30;2.50;;;4.60;99.60;;;;;;2251624;26;20342;-71
2024/04/12 02:59:52;;;;;;;3.78;1.80;;;4.50;99.40;;;;;;2231273;26;20271;-71
2024/04/12 03:00:53;;;;;;;4.22;2.05;;;4.40;99.30;;;;;;2236072;26;20279;-71
2024/04/12 03:01:54;;;;;;;5.27;2.07;;;4.50;99.50;;;;;;2234946;26;21091;-71
2024/04/12 03:02:54;;;;;;;3.45;2.00;;;4.50;99.50;;;;;;2249625;26;20797;-71
2024/04/12 03:03:58;;;;;;;3.70;2.30;;;4.50;99.40;;;;;;2251427;26;20270;-71
2024/04/12 03:05:00;;;;;;;3.88;2.35;;;4.60;99.60;;;;;;2235941;26;20268;-71
2024/04/12 03:06:01;;;;;;;4.53;2.25;;;4.50;99.50;;;;;;2230105;26;20385;-68
2024/04/12 03:07:09;;;;;;;4.47;2.20;;;4.50;99.40;;;;;;2245203;26;20735;-71
2024/04/12 03:08:17;;;;;;;4.22;2.25;;;4.50;99.40;;;;;;2247527;26;20380;-71
2024/04/12 03:09:18;;;;;;;5.05;2.75;;;4.50;99.50;;;;;;2249830;26;20228;-70
2024/04/12 03:10:20;;;;;;;2.83;2.07;;;4.50;99.50;;;;;;2250234;26;20270;-71
2024/04/12 03:11:26;;;;;;;5.00;2.45;;;4.50;99.70;;;;;;2249379;26;20231;-70
2024/04/12 03:12:27;;;;;;;4.18;2.53;;;4.50;99.90;;;;;;2237058;26;20279;-71
2024/04/12 03:13:29;;;;;;;6.37;2.63;;;4.50;99.90;;;;;;2250155;26;20266;-70
2024/04/12 03:14:30;;;;;;;7.97;2.65;;;4.50;99.90;;;;;;2249617;26;20271;-71
2024/04/12 03:15:34;;;;;;;4.05;2.30;;;4.50;99.60;;;;;;2234948;26;20817;-71
2024/04/12 03:16:43;;;;;;;3.63;2.40;;;4.50;99.50;;;;;;2243214;26;20266;-70
2024/04/12 03:17:43;;;;;;;3.30;2.42;;;4.40;99.40;;;;;;2250112;26;20271;-71
2024/04/12 03:18:46;;;;;;;3.50;2.07;;;4.50;99.80;;;;;;2249644;26;20399;-71
2024/04/12 03:19:47;;;;;;;5.50;2.83;;;4.50;99.80;;;;;;2255372;26;20360;-70
2024/04/12 03:20:47;;;;;;;6.70;2.87;;;4.50;99.90;;;;;;2256838;26;22190;-70
2024/04/12 03:21:50;;;;;;;4.47;2.10;;;4.50;99.90;;;;;;2255926;26;20379;-69
2024/04/12 03:22:52;;;;;;;3.92;2.30;;;4.40;99.90;;;;;;2255002;26;20321;-70
2024/04/12 03:23:55;;;;;;;4.03;2.47;;;4.40;99.90;;;;;;2255617;26;20271;-71
2024/04/12 03:24:56;;;;;;;4.40;2.05;;;4.50;99.90;;;;;;2247991;26;20270;-71
2024/04/12 03:25:57;;;;;;;4.55;2.65;;;4.50;99.90;;;;;;2255220;26;20270;-71
2024/04/12 03:26:58;;;;;;;3.50;2.30;;;4.50;99.90;;;;;;2257521;26;20268;-71
2024/04/12 03:27:59;;;;;;;3.25;1.75;;;4.50;99.70;;;;;;2255375;26;20271;-71
2024/04/12 03:29:03;;;;;;;4.43;2.30;;;4.40;99.50;;;;;;2254069;26;20266;-71
2024/04/12 03:30:13;;;;;;;4.28;2.45;;;4.40;99.50;;;;;;2251669;26;20239;-70
2024/04/12 03:31:17;;;;;;;6.15;2.50;;;4.50;99.80;;;;;;2253914;26;20234;-71
2024/04/12 03:32:19;;;;;;;5.78;2.67;;;4.40;99.80;;;;;;2234902;26;20235;-71
2024/04/12 03:33:20;;;;;;;5.43;2.72;;;4.50;99.90;;;;;;2235394;26;20244;-71
2024/04/12 03:34:20;;;;;;;3.77;2.23;;;4.50;99.90;;;;;;2249594;26;22384;-71
2024/04/12 03:35:21;;;;;;;4.67;2.60;;;4.50;99.90;;;;;;2249824;26;20280;-71
2024/04/12 03:37:38;;;;;;;4.18;2.50;;;4.40;99.90;;;;;;2249802;26;20270;-71
2024/04/12 03:38:38;;;;;;;5.05;3.33;;;4.40;99.80;;;;;;2250843;26;20267;-70
2024/04/12 03:39:39;;;;;;;6.07;3.00;;;4.40;99.70;;;;;;2235115;26;20761;-70
2024/04/12 03:40:45;;;;;;;4.37;2.63;;;4.40;99.70;;;;;;2234262;26;20280;-71
2024/04/12 03:42:08;;;;;;;2.97;2.40;;;4.40;99.90;;;;;;2234638;26;20368;-71
2024/04/12 03:43:08;;;;;;;6.60;2.70;;;4.40;99.70;;;;;;2212505;26;20259;-70
2024/04/12 03:44:18;;;;;;;5.77;3.43;;;4.30;99.60;;;;;;2232817;26;20259;-71
2024/04/12 03:45:18;;;;;;;4.45;2.80;;;4.40;99.90;;;;;;2249470;26;20247;-71
2024/04/12 03:46:21;;;;;;;3.43;2.37;;;4.40;99.80;;;;;;2251685;26;20235;-71
2024/04/12 03:47:27;;;;;;;8.40;3.53;;;4.30;99.70;;;;;;2243661;26;20294;-70
2024/04/12 03:48:33;;;;;;;4.03;2.47;;;4.30;99.90;;;;;;2248036;26;20314;-71
2024/04/12 03:49:40;;;;;;;3.55;2.58;;;4.30;99.70;;;;;;2217246;26;20342;-71
2024/04/12 03:50:41;;;;;;;4.65;2.97;;;4.20;99.90;;;;;;2217250;26;20304;-70
2024/04/12 03:51:46;;;;;;;4.80;2.20;;;4.20;99.90;;;;;;2231630;26;20748;-71
2024/04/12 03:52:48;;;;;;;5.10;2.75;;;4.20;99.90;;;;;;2237122;26;20275;-70
2024/04/12 03:53:51;;;;;;;4.32;2.70;;;4.20;99.90;;;;;;2249850;26;20337;-70
2024/04/12 03:55:08;;;;;;;3.03;2.00;;;4.20;99.90;;;;;;2250368;26;20338;-71
2024/04/12 03:56:12;;;;;;;4.85;2.15;;;4.20;99.90;;;;;;2237684;26;20291;-71
2024/04/12 03:57:13;;;;;;;3.40;2.20;;;4.20;99.90;;;;;;2239401;26;20689;-70
2024/04/12 03:58:17;;;;;;;4.43;2.17;;;4.10;99.90;;;;;;2235067;26;20240;-70
2024/04/12 03:59:19;;;;;;;5.93;2.83;;;4.10;99.90;;;;;;2228838;26;20248;-71
2024/04/12 04:00:21;;;;;;;4.90;2.70;;;4.20;99.90;;;;;;2227177;26;20252;-71
2024/04/12 04:01:21;;;;;;;4.68;2.33;;;4.20;99.90;;;;;;2250922;26;20274;-72
2024/04/12 04:02:22;;;;;;;5.33;2.97;;;4.20;99.90;;;;;;2249641;26;20746;-72
2024/04/12 04:03:31;;;;;;;6.30;3.13;;;4.20;99.90;;;;;;2250479;26;20275;-71
2024/04/12 04:04:37;;;;;;;9.25;5.60;;;4.20;99.90;;;;;;2236670;26;20375;-71
2024/04/12 04:05:38;;;;;;;10.30;6.50;;;4.30;99.90;;;;;;2237227;26;20271;-71
2024/04/12 04:06:38;;;;;;;11.13;7.93;;;4.30;99.90;;;;;;2235134;26;20995;-71
2024/04/12 04:07:46;;;;;;;7.93;6.10;;;4.30;99.90;;;;;;2235929;26;20260;-70
2024/04/12 04:08:50;;;;;;;12.75;6.90;;;4.30;99.90;;;;;;2240184;26;20267;-71
2024/04/12 04:09:51;;;;;;;9.90;6.90;;;4.30;99.90;;;;;;2252594;26;20321;-71
2024/04/12 04:10:54;;;;;;;10.63;8.15;;;4.30;99.90;;;;;;2252082;26;20270;-71
2024/04/12 04:11:56;;;;;;;9.60;7.45;;;4.40;99.90;;;;;;2237191;26;20360;-71
2024/04/12 04:12:56;;;;;;;8.02;6.10;;;4.40;99.90;;;;;;2251007;26;20267;-71
2024/04/12 04:13:57;;;;;;;6.93;5.53;;;4.40;99.90;;;;;;2252796;26;20271;-69
2024/04/12 04:15:03;;;;;;;8.33;4.53;;;4.30;99.90;;;;;;2252686;26;20330;-71
2024/04/12 04:16:05;;;;;;;7.82;5.50;;;4.30;99.90;;;;;;2251023;26;20254;-70
2024/04/12 04:17:10;;;;;;;5.65;4.20;;;4.30;99.90;;;;;;2253312;26;20269;-70
2024/04/12 04:18:10;;;;;;;5.18;3.17;;;4.30;99.90;;;;;;2252359;26;20289;-71
2024/04/12 04:19:12;;;;;;;5.67;4.17;;;4.30;99.90;;;;;;2253152;26;20239;-68
2024/04/12 04:20:17;;;;;;;5.35;3.05;;;4.30;99.90;;;;;;2252473;26;20274;-73
2024/04/12 04:21:24;;;;;;;6.07;2.63;;;4.30;99.90;;;;;;2251913;26;20230;-71
2024/04/12 04:23:28;;;;;;;3.20;2.90;;;4.20;99.90;;;;;;2254864;26;20324;-71
2024/04/12 04:24:32;;;;;;;5.87;3.63;;;4.20;99.90;;;;;;2254562;26;20304;-72
2024/04/12 04:25:32;;;;;;;5.32;3.53;;;4.20;99.90;;;;;;2245283;26;20322;-71
2024/04/12 04:26:34;;;;;;;8.47;3.50;;;4.10;99.90;;;;;;2252326;26;20282;-69
2024/04/12 04:27:35;;;;;;;4.72;3.28;;;4.10;99.90;;;;;;2253428;26;20356;-70
2024/04/12 04:28:37;;;;;;;7.05;3.78;;;4.10;99.90;;;;;;2247202;26;20262;-70
2024/04/12 04:29:37;;;;;;;6.68;3.28;;;4.20;99.90;;;;;;2237108;26;20312;-70
2024/04/12 04:30:38;;;;;;;3.43;3.13;;;4.20;99.90;;;;;;2237703;26;20751;-71
2024/04/12 04:31:49;;;;;;;4.28;3.38;;;4.30;99.90;;;;;;2239992;26;20313;-71
2024/04/12 04:32:50;;;;;;;5.50;3.55;;;4.20;99.90;;;;;;2230083;26;20636;-71
2024/04/12 04:33:50;;;;;;;6.60;4.17;;;4.20;99.90;;;;;;2230942;26;20271;-71
2024/04/12 04:34:54;;;;;;;6.87;3.47;;;4.20;99.90;;;;;;2230947;26;20265;-72
2024/04/12 04:35:55;;;;;;;5.60;3.38;;;4.30;99.90;;;;;;2243163;26;20859;-72
2024/04/12 04:36:56;;;;;;;6.30;3.67;;;4.30;99.90;;;;;;2244953;26;20272;-70
2024/04/12 04:37:57;;;;;;;7.47;3.75;;;4.30;99.90;;;;;;2242427;26;20267;-72
2024/04/12 04:39:03;;;;;;;6.13;4.40;;;4.30;99.90;;;;;;2243426;26;20267;-71
2024/04/12 04:40:12;;;;;;;6.35;3.42;;;4.30;99.90;;;;;;2241627;26;20281;-69
2024/04/12 04:41:12;;;;;;;5.10;3.30;;;4.30;99.90;;;;;;2244216;26;20317;-70
2024/04/12 04:42:13;;;;;;;5.73;3.73;;;4.40;99.90;;;;;;2244676;26;20716;-71
2024/04/12 04:43:17;;;;;;;5.93;4.20;;;4.40;99.90;;;;;;2244101;26;20236;-71
2024/04/12 04:44:18;;;;;;;6.00;3.65;;;4.40;99.90;;;;;;2232148;26;20256;-70
2024/04/12 04:45:18;;;;;;;6.00;4.60;;;4.40;99.90;;;;;;2214933;26;20237;-71
2024/04/12 04:46:26;;;;;;;6.97;4.53;;;4.40;99.90;;;;;;2203217;26;20254;-71
2024/04/12 04:47:28;;;;;;;6.50;4.15;;;4.40;99.90;;;;;;2208919;26;20286;-71
2024/04/12 04:48:29;;;;;;;6.15;3.88;;;4.40;99.90;;;;;;2217020;26;20312;-69
2024/04/12 04:49:29;;;;;;;6.43;4.30;;;4.40;99.90;;;;;;2225395;26;20255;-68
2024/04/12 04:50:30;;;;;;;9.60;4.57;;;4.50;99.90;;;;;;2233543;26;20687;-68
2024/04/12 04:51:31;;;;;;;10.67;5.53;;;4.40;99.90;;;;;;2220444;26;20272;-68
2024/04/12 04:52:36;;;;;;;10.67;6.10;;;4.50;99.90;;;;;;2214908;26;20274;-68
2024/04/12 04:53:36;;;;;;;12.80;6.32;;;4.50;99.90;;;;;;2221603;26;20316;-68
2024/04/12 04:54:39;;;;;;;10.33;5.80;;;4.60;99.90;;;;;;2230657;26;20318;-68
2024/04/12 04:55:44;;;;;;;12.63;5.95;;;4.60;99.90;;;;;;2225607;26;20648;-69
2024/04/12 04:56:46;;;;;;;14.77;7.45;;;4.50;99.90;;;;;;2235617;26;20365;-69
2024/04/12 04:57:54;;;;;;;7.55;4.90;;;4.60;99.90;;;;;;2230776;26;20331;-69
2024/04/12 04:58:55;;;;;;;8.02;4.35;;;4.60;99.90;;;;;;2227748;26;20273;-69
2024/04/12 05:00:06;;;;;;;10.10;5.03;;;4.50;99.90;;;;;;2228227;26;20272;-69
2024/04/12 05:01:11;;;;;;;6.20;4.03;;;4.50;99.90;;;;;;2243277;26;20282;-69
2024/04/12 05:02:12;;;;;;;7.82;4.53;;;4.50;99.90;;;;;;2248741;26;21036;-69
2024/04/12 05:03:15;;;;;;;10.33;5.53;;;4.60;99.90;;;;;;2234252;26;20303;-69
2024/04/12 05:04:20;;;;;;;11.10;5.68;;;4.60;99.90;;;;;;2248902;26;20684;-69
2024/04/12 05:05:27;;;;;;;8.45;4.80;;;4.60;99.90;;;;;;2249699;26;20275;-69
2024/04/12 05:06:28;;;;;;;10.57;5.95;;;4.70;99.90;;;;;;2248714;26;20278;-69
2024/04/12 05:07:28;;;;;;;9.13;4.50;;;4.60;99.90;;;;;;2235642;26;20339;-68
2024/04/12 05:08:33;;;;;;;10.17;4.87;;;4.70;99.90;;;;;;2220908;26;20773;-69
2024/04/12 05:09:36;;;;;;;4.90;3.58;;;4.70;99.90;;;;;;2217593;26;20418;-69
2024/04/12 05:10:39;;;;;;;6.70;4.63;;;4.70;99.90;;;;;;2206300;26;20267;-69
2024/04/12 05:11:40;;;;;;;8.05;4.65;;;4.80;99.90;;;;;;2234012;26;20392;-68
2024/04/12 05:12:42;;;;;;;7.90;4.43;;;4.90;99.90;;;;;;2235363;26;20361;-69
2024/04/12 05:13:49;;;;;;;8.80;4.63;;;4.90;99.90;;;;;;2236324;26;20265;-69
2024/04/12 05:14:54;;;;;;;6.18;4.30;;;5.00;99.90;;;;;;2224036;26;20282;-69
2024/04/12 05:15:55;;;;;;;9.00;4.50;;;5.00;99.90;;;;;;2223429;26;20277;-69
2024/04/12 05:16:56;;;;;;;7.70;4.73;;;5.00;99.90;;;;;;2223034;26;20273;-69
2024/04/12 05:18:03;;;;;;;8.43;4.53;;;5.00;99.90;;;;;;2216721;26;20303;-69
2024/04/12 05:19:08;;;;;;;10.60;4.22;;;5.10;99.90;;;;;;2221042;26;20245;-69
2024/04/12 05:20:19;;;;;;;9.15;4.47;;;5.10;99.90;;;;;;2227574;26;20306;-69
2024/04/12 05:21:20;;;;;;;5.57;3.80;;;5.00;99.90;;;;;;2236030;26;20646;-68
2024/04/12 05:22:21;;;;;;;7.10;3.85;;;5.00;99.90;;;;;;2219538;26;20304;-69
2024/04/12 05:23:23;;;;;;;5.93;4.20;;;5.10;99.90;;;;;;2233428;26;20618;-68
2024/04/12 05:24:24;;;;;;;8.13;4.47;;;5.10;99.90;;;;;;2232849;26;20791;-69
2024/04/12 05:25:25;;;;;;;6.60;4.00;;;5.20;99.90;;;;;;2245665;26;20272;-69
2024/04/12 05:26:28;;;;;;;7.83;3.57;;;5.20;99.90;;;;;;2243775;26;20276;-69
2024/04/12 05:27:30;;;;;;;6.75;4.00;;;5.30;99.90;;;;;;2245768;26;20270;-71
2024/04/12 05:28:31;;;;;;;6.63;3.80;;;5.30;99.90;;;;;;2252104;26;20598;-69
2024/04/12 05:29:33;;;;;;;7.70;4.87;;;5.30;99.90;;;;;;2236721;26;20350;-69
2024/04/12 05:30:37;;;;;;;6.32;4.00;;;5.30;99.90;;;;;;2249702;26;20317;-69
2024/04/12 05:31:44;;;;;;;4.47;3.17;;;5.30;99.90;;;;;;2241922;26;20307;-69
2024/04/12 05:32:45;;;;;;;5.03;3.10;;;5.30;99.90;;;;;;2241098;26;20360;-70
2024/04/12 05:33:49;;;;;;;4.70;2.80;;;5.10;99.90;;;;;;2244369;26;20481;-69
2024/04/12 05:34:50;;;;;;;5.28;2.80;;;5.10;99.90;;;;;;2244072;26;20805;-70